Aviation Digital Data Service (ADDS)

Output produced by METARs form (0118 UTC 06 December 2019)
found at http://www.aviationweather.gov/metar/data/
 
METAR text: KAUN 060055Z AUTO 00000KT 10SM CLR 10/08 A3008 RMK A01
Conditions at: KAUN (AUBURN MUNI , CA, US) observed 0055 UTC 06 December 2019
Temperature: 10.0°C (50°F)
Dewpoint: 8.0°C (46°F) [RH = 87%]
Pressure (altimeter): 30.08 inches Hg (1018.7 mb)
Winds: calm
Visibility: 10 or more miles (16+ km)
Ceiling: at least 12,000 feet AGL
Clouds: sky clear below 12,000 feet AGL
Weather: automated observation with no human augmentation;
there may or may not be significant weather present at this time

METAR text: KAUN 060035Z AUTO 00000KT 10SM CLR 12/09 A3008 RMK A01
Conditions at: KAUN (AUBURN MUNI , CA, US) observed 0035 UTC 06 December 2019
Temperature: 12.0°C (54°F)
Dewpoint: 9.0°C (48°F) [RH = 82%]
Pressure (altimeter): 30.08 inches Hg (1018.7 mb)
Winds: calm
Visibility: 10 or more miles (16+ km)
Ceiling: at least 12,000 feet AGL
Clouds: sky clear below 12,000 feet AGL
Weather: automated observation with no human augmentation;
there may or may not be significant weather present at this time

METAR text: KAUN 060015Z AUTO 00000KT 10SM CLR 13/09 A3008 RMK A01
Conditions at: KAUN (AUBURN MUNI , CA, US) observed 0015 UTC 06 December 2019
Temperature: 13.0°C (55°F)
Dewpoint: 9.0°C (48°F) [RH = 77%]
Pressure (altimeter): 30.08 inches Hg (1018.7 mb)
Winds: calm
Visibility: 10 or more miles (16+ km)
Ceiling: at least 12,000 feet AGL
Clouds: sky clear below 12,000 feet AGL
Weather: automated observation with no human augmentation;
there may or may not be significant weather present at this time

METAR text: KAUN 052355Z AUTO 00000KT 10SM CLR 14/09 A3008 RMK A01
Conditions at: KAUN (AUBURN MUNI , CA, US) observed 2355 UTC 05 December 2019
Temperature: 14.0°C (57°F)
Dewpoint: 9.0°C (48°F) [RH = 72%]
Pressure (altimeter): 30.08 inches Hg (1018.7 mb)
Winds: calm
Visibility: 10 or more miles (16+ km)
Ceiling: at least 12,000 feet AGL
Clouds: sky clear below 12,000 feet AGL
Weather: automated observation with no human augmentation;
there may or may not be significant weather present at this time

METAR text: KAUN 052335Z AUTO 00000KT 10SM CLR 14/09 A3007 RMK A01
Conditions at: KAUN (AUBURN MUNI , CA, US) observed 2335 UTC 05 December 2019
Temperature: 14.0°C (57°F)
Dewpoint: 9.0°C (48°F) [RH = 72%]
Pressure (altimeter): 30.07 inches Hg (1018.4 mb)
Winds: calm
Visibility: 10 or more miles (16+ km)
Ceiling: at least 12,000 feet AGL
Clouds: sky clear below 12,000 feet AGL
Weather: automated observation with no human augmentation;
there may or may not be significant weather present at this time

METAR text: KAUN 052315Z AUTO 00000KT 10SM CLR 14/09 A3007 RMK A01
Conditions at: KAUN (AUBURN MUNI , CA, US) observed 2315 UTC 05 December 2019
Temperature: 14.0°C (57°F)
Dewpoint: 9.0°C (48°F) [RH = 72%]
Pressure (altimeter): 30.07 inches Hg (1018.4 mb)
Winds: calm
Visibility: 10 or more miles (16+ km)
Ceiling: at least 12,000 feet AGL
Clouds: sky clear below 12,000 feet AGL
Weather: automated observation with no human augmentation;
there may or may not be significant weather present at this time

METAR text: KAUN 052255Z AUTO VRB04KT 10SM CLR 15/08 A3007 RMK A01
Conditions at: KAUN (AUBURN MUNI , CA, US) observed 2255 UTC 05 December 2019
Temperature: 15.0°C (59°F)
Dewpoint: 8.0°C (46°F) [RH = 63%]
Pressure (altimeter): 30.07 inches Hg (1018.4 mb)
Winds: variable direction winds at 5 MPH (4 knots; 2.1 m/s)
Visibility: 10 or more miles (16+ km)
Ceiling: at least 12,000 feet AGL
Clouds: sky clear below 12,000 feet AGL
Weather: automated observation with no human augmentation;
there may or may not be significant weather present at this time

METAR text: KAUN 052235Z AUTO 00000KT 10SM CLR 15/08 A3007 RMK A01
Conditions at: KAUN (AUBURN MUNI , CA, US) observed 2235 UTC 05 December 2019
Temperature: 15.0°C (59°F)
Dewpoint: 8.0°C (46°F) [RH = 63%]
Pressure (altimeter): 30.07 inches Hg (1018.4 mb)
Winds: calm
Visibility: 10 or more miles (16+ km)
Ceiling: at least 12,000 feet AGL
Clouds: sky clear below 12,000 feet AGL
Weather: automated observation with no human augmentation;
there may or may not be significant weather present at this time

METAR text: KAUN 052215Z AUTO 15005KT 10SM CLR 15/08 A3007 RMK A01
Conditions at: KAUN (AUBURN MUNI , CA, US) observed 2215 UTC 05 December 2019
Temperature: 15.0°C (59°F)
Dewpoint: 8.0°C (46°F) [RH = 63%]
Pressure (altimeter): 30.07 inches Hg (1018.4 mb)
Winds: from the SSE (150 degrees) at 6 MPH (5 knots; 2.6 m/s)
Visibility: 10 or more miles (16+ km)
Ceiling: at least 12,000 feet AGL
Clouds: sky clear below 12,000 feet AGL
Weather: automated observation with no human augmentation;
there may or may not be significant weather present at this time

METAR text: KAUN 052155Z AUTO 18004KT 10SM CLR 15/08 A3008 RMK A01
Conditions at: KAUN (AUBURN MUNI , CA, US) observed 2155 UTC 05 December 2019
Temperature: 15.0°C (59°F)
Dewpoint: 8.0°C (46°F) [RH = 63%]
Pressure (altimeter): 30.08 inches Hg (1018.7 mb)
Winds: from the S (180 degrees) at 5 MPH (4 knots; 2.1 m/s)
Visibility: 10 or more miles (16+ km)
Ceiling: at least 12,000 feet AGL
Clouds: sky clear below 12,000 feet AGL
Weather: automated observation with no human augmentation;
there may or may not be significant weather present at this time

METAR text: KAUN 052135Z AUTO VRB05KT 10SM CLR 15/08 A3008 RMK A01
Conditions at: KAUN (AUBURN MUNI , CA, US) observed 2135 UTC 05 December 2019
Temperature: 15.0°C (59°F)
Dewpoint: 8.0°C (46°F) [RH = 63%]
Pressure (altimeter): 30.08 inches Hg (1018.7 mb)
Winds: variable direction winds at 6 MPH (5 knots; 2.6 m/s)
Visibility: 10 or more miles (16+ km)
Ceiling: at least 12,000 feet AGL
Clouds: sky clear below 12,000 feet AGL
Weather: automated observation with no human augmentation;
there may or may not be significant weather present at this time

METAR text: KAUN 052115Z AUTO 14006KT 10SM CLR 15/08 A3008 RMK A01
Conditions at: KAUN (AUBURN MUNI , CA, US) observed 2115 UTC 05 December 2019
Temperature: 15.0°C (59°F)
Dewpoint: 8.0°C (46°F) [RH = 63%]
Pressure (altimeter): 30.08 inches Hg (1018.7 mb)
Winds: from the SE (140 degrees) at 7 MPH (6 knots; 3.1 m/s)
Visibility: 10 or more miles (16+ km)
Ceiling: at least 12,000 feet AGL
Clouds: sky clear below 12,000 feet AGL
Weather: automated observation with no human augmentation;
there may or may not be significant weather present at this time

METAR text: KAUN 052055Z AUTO 12007KT 10SM CLR 15/08 A3009 RMK A01
Conditions at: KAUN (AUBURN MUNI , CA, US) observed 2055 UTC 05 December 2019
Temperature: 15.0°C (59°F)
Dewpoint: 8.0°C (46°F) [RH = 63%]
Pressure (altimeter): 30.09 inches Hg (1019.0 mb)
Winds: from the ESE (120 degrees) at 8 MPH (7 knots; 3.6 m/s)
Visibility: 10 or more miles (16+ km)
Ceiling: at least 12,000 feet AGL
Clouds: sky clear below 12,000 feet AGL
Weather: automated observation with no human augmentation;
there may or may not be significant weather present at this time

METAR text: KAUN 052035Z AUTO 12004KT 10SM CLR 14/08 A3010 RMK A01
Conditions at: KAUN (AUBURN MUNI , CA, US) observed 2035 UTC 05 December 2019
Temperature: 14.0°C (57°F)
Dewpoint: 8.0°C (46°F) [RH = 67%]
Pressure (altimeter): 30.10 inches Hg (1019.4 mb)
Winds: from the ESE (120 degrees) at 5 MPH (4 knots; 2.1 m/s)
Visibility: 10 or more miles (16+ km)
Ceiling: at least 12,000 feet AGL
Clouds: sky clear below 12,000 feet AGL
Weather: automated observation with no human augmentation;
there may or may not be significant weather present at this time

METAR text: KAUN 052015Z AUTO 15005KT 10SM CLR 14/08 A3011 RMK A01
Conditions at: KAUN (AUBURN MUNI , CA, US) observed 2015 UTC 05 December 2019
Temperature: 14.0°C (57°F)
Dewpoint: 8.0°C (46°F) [RH = 67%]
Pressure (altimeter): 30.11 inches Hg (1019.7 mb)
Winds: from the SSE (150 degrees) at 6 MPH (5 knots; 2.6 m/s)
Visibility: 10 or more miles (16+ km)
Ceiling: at least 12,000 feet AGL
Clouds: sky clear below 12,000 feet AGL
Weather: automated observation with no human augmentation;
there may or may not be significant weather present at this time

METAR text: KAUN 051955Z AUTO VRB04KT 10SM CLR 14/08 A3011 RMK A01
Conditions at: KAUN (AUBURN MUNI , CA, US) observed 1955 UTC 05 December 2019
Temperature: 14.0°C (57°F)
Dewpoint: 8.0°C (46°F) [RH = 67%]
Pressure (altimeter): 30.11 inches Hg (1019.7 mb)
Winds: variable direction winds at 5 MPH (4 knots; 2.1 m/s)
Visibility: 10 or more miles (16+ km)
Ceiling: at least 12,000 feet AGL
Clouds: sky clear below 12,000 feet AGL
Weather: automated observation with no human augmentation;
there may or may not be significant weather present at this time

METAR text: KAUN 051935Z AUTO 00000KT 10SM CLR 14/08 A3012 RMK A01
Conditions at: KAUN (AUBURN MUNI , CA, US) observed 1935 UTC 05 December 2019
Temperature: 14.0°C (57°F)
Dewpoint: 8.0°C (46°F) [RH = 67%]
Pressure (altimeter): 30.12 inches Hg (1020.1 mb)
Winds: calm
Visibility: 10 or more miles (16+ km)
Ceiling: at least 12,000 feet AGL
Clouds: sky clear below 12,000 feet AGL
Weather: automated observation with no human augmentation;
there may or may not be significant weather present at this time

METAR text: KAUN 051915Z AUTO 13004KT 10SM CLR 14/08 A3012 RMK A01
Conditions at: KAUN (AUBURN MUNI , CA, US) observed 1915 UTC 05 December 2019
Temperature: 14.0°C (57°F)
Dewpoint: 8.0°C (46°F) [RH = 67%]
Pressure (altimeter): 30.12 inches Hg (1020.1 mb)
Winds: from the SE (130 degrees) at 5 MPH (4 knots; 2.1 m/s)
Visibility: 10 or more miles (16+ km)
Ceiling: at least 12,000 feet AGL
Clouds: sky clear below 12,000 feet AGL
Weather: automated observation with no human augmentation;
there may or may not be significant weather present at this time

METAR text: KAUN 051855Z AUTO 13004KT 10SM CLR 13/08 A3012 RMK A01
Conditions at: KAUN (AUBURN MUNI , CA, US) observed 1855 UTC 05 December 2019
Temperature: 13.0°C (55°F)
Dewpoint: 8.0°C (46°F) [RH = 72%]
Pressure (altimeter): 30.12 inches Hg (1020.1 mb)
Winds: from the SE (130 degrees) at 5 MPH (4 knots; 2.1 m/s)
Visibility: 10 or more miles (16+ km)
Ceiling: at least 12,000 feet AGL
Clouds: sky clear below 12,000 feet AGL
Weather: automated observation with no human augmentation;
there may or may not be significant weather present at this time

METAR text: KAUN 051835Z AUTO 00000KT 10SM CLR 13/09 A3014 RMK A01
Conditions at: KAUN (AUBURN MUNI , CA, US) observed 1835 UTC 05 December 2019
Temperature: 13.0°C (55°F)
Dewpoint: 9.0°C (48°F) [RH = 77%]
Pressure (altimeter): 30.14 inches Hg (1020.7 mb)
Winds: calm
Visibility: 10 or more miles (16+ km)
Ceiling: at least 12,000 feet AGL
Clouds: sky clear below 12,000 feet AGL
Weather: automated observation with no human augmentation;
there may or may not be significant weather present at this time

METAR text: KAUN 051815Z AUTO 10003KT 10SM CLR 13/09 A3013 RMK A01
Conditions at: KAUN (AUBURN MUNI , CA, US) observed 1815 UTC 05 December 2019
Temperature: 13.0°C (55°F)
Dewpoint: 9.0°C (48°F) [RH = 77%]
Pressure (altimeter): 30.13 inches Hg (1020.4 mb)
Winds: from the E (100 degrees) at 3 MPH (3 knots; 1.5 m/s)
Visibility: 10 or more miles (16+ km)
Ceiling: at least 12,000 feet AGL
Clouds: sky clear below 12,000 feet AGL
Weather: automated observation with no human augmentation;
there may or may not be significant weather present at this time

METAR text: KAUN 051755Z AUTO 09005KT 10SM CLR 12/09 A3013 RMK A01
Conditions at: KAUN (AUBURN MUNI , CA, US) observed 1755 UTC 05 December 2019
Temperature: 12.0°C (54°F)
Dewpoint: 9.0°C (48°F) [RH = 82%]
Pressure (altimeter): 30.13 inches Hg (1020.4 mb)
Winds: from the E (90 degrees) at 6 MPH (5 knots; 2.6 m/s)
Visibility: 10 or more miles (16+ km)
Ceiling: at least 12,000 feet AGL
Clouds: sky clear below 12,000 feet AGL
Weather: automated observation with no human augmentation;
there may or may not be significant weather present at this time

METAR text: KAUN 051735Z AUTO 10005KT 10SM CLR 12/09 A3013 RMK A01
Conditions at: KAUN (AUBURN MUNI , CA, US) observed 1735 UTC 05 December 2019
Temperature: 12.0°C (54°F)
Dewpoint: 9.0°C (48°F) [RH = 82%]
Pressure (altimeter): 30.13 inches Hg (1020.4 mb)
Winds: from the E (100 degrees) at 6 MPH (5 knots; 2.6 m/s)
Visibility: 10 or more miles (16+ km)
Ceiling: at least 12,000 feet AGL
Clouds: sky clear below 12,000 feet AGL
Weather: automated observation with no human augmentation;
there may or may not be significant weather present at this time

METAR text: KAUN 051715Z AUTO 11006KT 10SM CLR 11/09 A3012 RMK A01
Conditions at: KAUN (AUBURN MUNI , CA, US) observed 1715 UTC 05 December 2019
Temperature: 11.0°C (52°F)
Dewpoint: 9.0°C (48°F) [RH = 87%]
Pressure (altimeter): 30.12 inches Hg (1020.1 mb)
Winds: from the ESE (110 degrees) at 7 MPH (6 knots; 3.1 m/s)
Visibility: 10 or more miles (16+ km)
Ceiling: at least 12,000 feet AGL
Clouds: sky clear below 12,000 feet AGL
Weather: automated observation with no human augmentation;
there may or may not be significant weather present at this time

METAR text: KAUN 051655Z AUTO 11006KT 10SM CLR 11/09 A3011 RMK A01
Conditions at: KAUN (AUBURN MUNI , CA, US) observed 1655 UTC 05 December 2019
Temperature: 11.0°C (52°F)
Dewpoint: 9.0°C (48°F) [RH = 87%]
Pressure (altimeter): 30.11 inches Hg (1019.7 mb)
Winds: from the ESE (110 degrees) at 7 MPH (6 knots; 3.1 m/s)
Visibility: 10 or more miles (16+ km)
Ceiling: at least 12,000 feet AGL
Clouds: sky clear below 12,000 feet AGL
Weather: automated observation with no human augmentation;
there may or may not be significant weather present at this time

METAR text: KAUN 051635Z AUTO 09006KT 10SM CLR 10/08 A3010 RMK A01
Conditions at: KAUN (AUBURN MUNI , CA, US) observed 1635 UTC 05 December 2019
Temperature: 10.0°C (50°F)
Dewpoint: 8.0°C (46°F) [RH = 87%]
Pressure (altimeter): 30.10 inches Hg (1019.4 mb)
Winds: from the E (90 degrees) at 7 MPH (6 knots; 3.1 m/s)
Visibility: 10 or more miles (16+ km)
Ceiling: at least 12,000 feet AGL
Clouds: sky clear below 12,000 feet AGL
Weather: automated observation with no human augmentation;
there may or may not be significant weather present at this time

METAR text: KAUN 051615Z AUTO 11005KT 10SM CLR 10/08 A3010 RMK A01
Conditions at: KAUN (AUBURN MUNI , CA, US) observed 1615 UTC 05 December 2019
Temperature: 10.0°C (50°F)
Dewpoint: 8.0°C (46°F) [RH = 87%]
Pressure (altimeter): 30.10 inches Hg (1019.4 mb)
Winds: from the ESE (110 degrees) at 6 MPH (5 knots; 2.6 m/s)
Visibility: 10 or more miles (16+ km)
Ceiling: at least 12,000 feet AGL
Clouds: sky clear below 12,000 feet AGL
Weather: automated observation with no human augmentation;
there may or may not be significant weather present at this time

METAR text: KAUN 051555Z AUTO 09006KT 10SM CLR 09/08 A3009 RMK A01
Conditions at: KAUN (AUBURN MUNI , CA, US) observed 1555 UTC 05 December 2019
Temperature: 9.0°C (48°F)
Dewpoint: 8.0°C (46°F) [RH = 93%]
Pressure (altimeter): 30.09 inches Hg (1019.0 mb)
Winds: from the E (90 degrees) at 7 MPH (6 knots; 3.1 m/s)
Visibility: 10 or more miles (16+ km)
Ceiling: at least 12,000 feet AGL
Clouds: sky clear below 12,000 feet AGL
Weather: automated observation with no human augmentation;
there may or may not be significant weather present at this time

METAR text: KAUN 051535Z AUTO 09007KT 10SM CLR 09/08 A3008 RMK A01
Conditions at: KAUN (AUBURN MUNI , CA, US) observed 1535 UTC 05 December 2019
Temperature: 9.0°C (48°F)
Dewpoint: 8.0°C (46°F) [RH = 93%]
Pressure (altimeter): 30.08 inches Hg (1018.7 mb)
Winds: from the E (90 degrees) at 8 MPH (7 knots; 3.6 m/s)
Visibility: 10 or more miles (16+ km)
Ceiling: at least 12,000 feet AGL
Clouds: sky clear below 12,000 feet AGL
Weather: automated observation with no human augmentation;
there may or may not be significant weather present at this time

METAR text: KAUN 051515Z AUTO 00000KT 10SM CLR 07/07 A3008 RMK A01
Conditions at: KAUN (AUBURN MUNI , CA, US) observed 1515 UTC 05 December 2019
Temperature: 7.0°C (45°F)
Dewpoint: 7.0°C (45°F) [RH = 100%]
Pressure (altimeter): 30.08 inches Hg (1018.7 mb)
Winds: calm
Visibility: 10 or more miles (16+ km)
Ceiling: at least 12,000 feet AGL
Clouds: sky clear below 12,000 feet AGL
Weather: automated observation with no human augmentation;
there may or may not be significant weather present at this time

METAR text: KAUN 051455Z AUTO 00000KT 10SM CLR 08/07 A3007 RMK A01
Conditions at: KAUN (AUBURN MUNI , CA, US) observed 1455 UTC 05 December 2019
Temperature: 8.0°C (46°F)
Dewpoint: 7.0°C (45°F) [RH = 93%]
Pressure (altimeter): 30.07 inches Hg (1018.4 mb)
Winds: calm
Visibility: 10 or more miles (16+ km)
Ceiling: at least 12,000 feet AGL
Clouds: sky clear below 12,000 feet AGL
Weather: automated observation with no human augmentation;
there may or may not be significant weather present at this time

METAR text: KAUN 051435Z AUTO 00000KT 10SM CLR 08/07 A3006 RMK A01
Conditions at: KAUN (AUBURN MUNI , CA, US) observed 1435 UTC 05 December 2019
Temperature: 8.0°C (46°F)
Dewpoint: 7.0°C (45°F) [RH = 93%]
Pressure (altimeter): 30.06 inches Hg (1018.0 mb)
Winds: calm
Visibility: 10 or more miles (16+ km)
Ceiling: at least 12,000 feet AGL
Clouds: sky clear below 12,000 feet AGL
Weather: automated observation with no human augmentation;
there may or may not be significant weather present at this time

METAR text: KAUN 051415Z AUTO 09004KT 10SM CLR 08/07 A3006 RMK A01
Conditions at: KAUN (AUBURN MUNI , CA, US) observed 1415 UTC 05 December 2019
Temperature: 8.0°C (46°F)
Dewpoint: 7.0°C (45°F) [RH = 93%]
Pressure (altimeter): 30.06 inches Hg (1018.0 mb)
Winds: from the E (90 degrees) at 5 MPH (4 knots; 2.1 m/s)
Visibility: 10 or more miles (16+ km)
Ceiling: at least 12,000 feet AGL
Clouds: sky clear below 12,000 feet AGL
Weather: automated observation with no human augmentation;
there may or may not be significant weather present at this time

METAR text: KAUN 051355Z AUTO 00000KT 10SM CLR 09/07 A3005 RMK A01
Conditions at: KAUN (AUBURN MUNI , CA, US) observed 1355 UTC 05 December 2019
Temperature: 9.0°C (48°F)
Dewpoint: 7.0°C (45°F) [RH = 87%]
Pressure (altimeter): 30.05 inches Hg (1017.7 mb)
Winds: calm
Visibility: 10 or more miles (16+ km)
Ceiling: at least 12,000 feet AGL
Clouds: sky clear below 12,000 feet AGL
Weather: automated observation with no human augmentation;
there may or may not be significant weather present at this time

METAR text: KAUN 051335Z AUTO 00000KT 10SM CLR 09/08 A3005 RMK A01
Conditions at: KAUN (AUBURN MUNI , CA, US) observed 1335 UTC 05 December 2019
Temperature: 9.0°C (48°F)
Dewpoint: 8.0°C (46°F) [RH = 93%]
Pressure (altimeter): 30.05 inches Hg (1017.7 mb)
Winds: calm
Visibility: 10 or more miles (16+ km)
Ceiling: at least 12,000 feet AGL
Clouds: sky clear below 12,000 feet AGL
Weather: automated observation with no human augmentation;
there may or may not be significant weather present at this time

METAR text: KAUN 051315Z AUTO 11003KT 10SM CLR 09/08 A3004 RMK A01
Conditions at: KAUN (AUBURN MUNI , CA, US) observed 1315 UTC 05 December 2019
Temperature: 9.0°C (48°F)
Dewpoint: 8.0°C (46°F) [RH = 93%]
Pressure (altimeter): 30.04 inches Hg (1017.4 mb)
Winds: from the ESE (110 degrees) at 3 MPH (3 knots; 1.5 m/s)
Visibility: 10 or more miles (16+ km)
Ceiling: at least 12,000 feet AGL
Clouds: sky clear below 12,000 feet AGL
Weather: automated observation with no human augmentation;
there may or may not be significant weather present at this time

METAR text: KAUN 051255Z AUTO 08006KT 10SM CLR 09/08 A3004 RMK A01
Conditions at: KAUN (AUBURN MUNI , CA, US) observed 1255 UTC 05 December 2019
Temperature: 9.0°C (48°F)
Dewpoint: 8.0°C (46°F) [RH = 93%]
Pressure (altimeter): 30.04 inches Hg (1017.4 mb)
Winds: from the E (80 degrees) at 7 MPH (6 knots; 3.1 m/s)
Visibility: 10 or more miles (16+ km)
Ceiling: at least 12,000 feet AGL
Clouds: sky clear below 12,000 feet AGL
Weather: automated observation with no human augmentation;
there may or may not be significant weather present at this time

METAR text: KAUN 051235Z AUTO 00000KT 10SM FEW031 08/07 A3004 RMK A01
Conditions at: KAUN (AUBURN MUNI , CA, US) observed 1235 UTC 05 December 2019
Temperature: 8.0°C (46°F)
Dewpoint: 7.0°C (45°F) [RH = 93%]
Pressure (altimeter): 30.04 inches Hg (1017.4 mb)
Winds: calm
Visibility: 10 or more miles (16+ km)
Ceiling: at least 12,000 feet AGL
Clouds: few clouds at 3100 feet AGL
Weather: automated observation with no human augmentation;
there may or may not be significant weather present at this time

METAR text: KAUN 051215Z AUTO 00000KT 10SM SCT031 08/08 A3004 RMK A01
Conditions at: KAUN (AUBURN MUNI , CA, US) observed 1215 UTC 05 December 2019
Temperature: 8.0°C (46°F)
Dewpoint: 8.0°C (46°F) [RH = 100%]
Pressure (altimeter): 30.04 inches Hg (1017.4 mb)
Winds: calm
Visibility: 10 or more miles (16+ km)
Ceiling: at least 12,000 feet AGL
Clouds: scattered clouds at 3100 feet AGL
Weather: automated observation with no human augmentation;
there may or may not be significant weather present at this time

METAR text: KAUN 051155Z AUTO 00000KT 10SM SCT032 08/07 A3004 RMK A01
Conditions at: KAUN (AUBURN MUNI , CA, US) observed 1155 UTC 05 December 2019
Temperature: 8.0°C (46°F)
Dewpoint: 7.0°C (45°F) [RH = 93%]
Pressure (altimeter): 30.04 inches Hg (1017.4 mb)
Winds: calm
Visibility: 10 or more miles (16+ km)
Ceiling: at least 12,000 feet AGL
Clouds: scattered clouds at 3200 feet AGL
Weather: automated observation with no human augmentation;
there may or may not be significant weather present at this time

METAR text: KAUN 051135Z AUTO 00000KT 10SM SCT035 BKN045 08/08 A3003 RMK A01
Conditions at: KAUN (AUBURN MUNI , CA, US) observed 1135 UTC 05 December 2019
Temperature: 8.0°C (46°F)
Dewpoint: 8.0°C (46°F) [RH = 100%]
Pressure (altimeter): 30.03 inches Hg (1017.0 mb)
Winds: calm
Visibility: 10 or more miles (16+ km)
Ceiling: 4500 feet AGL
Clouds: scattered clouds at 3500 feet AGL
broken clouds at 4500 feet AGL
Weather: automated observation with no human augmentation;
there may or may not be significant weather present at this time

METAR text: KAUN 051115Z AUTO 08005KT 10SM FEW034 OVC044 09/09 A3003 RMK A01
Conditions at: KAUN (AUBURN MUNI , CA, US) observed 1115 UTC 05 December 2019
Temperature: 9.0°C (48°F)
Dewpoint: 9.0°C (48°F) [RH = 100%]
Pressure (altimeter): 30.03 inches Hg (1017.0 mb)
Winds: from the E (80 degrees) at 6 MPH (5 knots; 2.6 m/s)
Visibility: 10 or more miles (16+ km)
Ceiling: 4400 feet AGL
Clouds: few clouds at 3400 feet AGL
overcast cloud deck at 4400 feet AGL
Weather: automated observation with no human augmentation;
there may or may not be significant weather present at this time

METAR text: KAUN 051055Z AUTO 00000KT 10SM FEW033 BKN042 OVC075 09/08 A3003 RMK A01
Conditions at: KAUN (AUBURN MUNI , CA, US) observed 1055 UTC 05 December 2019
Temperature: 9.0°C (48°F)
Dewpoint: 8.0°C (46°F) [RH = 93%]
Pressure (altimeter): 30.03 inches Hg (1017.0 mb)
Winds: calm
Visibility: 10 or more miles (16+ km)
Ceiling: 4200 feet AGL
Clouds: few clouds at 3300 feet AGL
broken clouds at 4200 feet AGL
overcast cloud deck at 7500 feet AGL
Weather: automated observation with no human augmentation;
there may or may not be significant weather present at this time

METAR text: KAUN 051035Z AUTO 00000KT 10SM FEW040 OVC075 09/08 A3003 RMK A01
Conditions at: KAUN (AUBURN MUNI , CA, US) observed 1035 UTC 05 December 2019
Temperature: 9.0°C (48°F)
Dewpoint: 8.0°C (46°F) [RH = 93%]
Pressure (altimeter): 30.03 inches Hg (1017.0 mb)
Winds: calm
Visibility: 10 or more miles (16+ km)
Ceiling: 7500 feet AGL
Clouds: few clouds at 4000 feet AGL
overcast cloud deck at 7500 feet AGL
Weather: automated observation with no human augmentation;
there may or may not be significant weather present at this time

METAR text: KAUN 051015Z AUTO 09004KT 10SM OVC070 10/09 A3002 RMK A01
Conditions at: KAUN (AUBURN MUNI , CA, US) observed 1015 UTC 05 December 2019
Temperature: 10.0°C (50°F)
Dewpoint: 9.0°C (48°F) [RH = 93%]
Pressure (altimeter): 30.02 inches Hg (1016.7 mb)
Winds: from the E (90 degrees) at 5 MPH (4 knots; 2.1 m/s)
Visibility: 10 or more miles (16+ km)
Ceiling: 7000 feet AGL
Clouds: overcast cloud deck at 7000 feet AGL
Weather: automated observation with no human augmentation;
there may or may not be significant weather present at this time

METAR text: KAUN 050955Z AUTO 10006KT 10SM OVC070 10/09 A3002 RMK A01
Conditions at: KAUN (AUBURN MUNI , CA, US) observed 0955 UTC 05 December 2019
Temperature: 10.0°C (50°F)
Dewpoint: 9.0°C (48°F) [RH = 93%]
Pressure (altimeter): 30.02 inches Hg (1016.7 mb)
Winds: from the E (100 degrees) at 7 MPH (6 knots; 3.1 m/s)
Visibility: 10 or more miles (16+ km)
Ceiling: 7000 feet AGL
Clouds: overcast cloud deck at 7000 feet AGL
Weather: automated observation with no human augmentation;
there may or may not be significant weather present at this time

METAR text: KAUN 050935Z AUTO 00000KT 10SM FEW029 SCT055 OVC070 10/09 A3002 RMK A01
Conditions at: KAUN (AUBURN MUNI , CA, US) observed 0935 UTC 05 December 2019
Temperature: 10.0°C (50°F)
Dewpoint: 9.0°C (48°F) [RH = 93%]
Pressure (altimeter): 30.02 inches Hg (1016.7 mb)
Winds: calm
Visibility: 10 or more miles (16+ km)
Ceiling: 7000 feet AGL
Clouds: few clouds at 2900 feet AGL
scattered clouds at 5500 feet AGL
overcast cloud deck at 7000 feet AGL
Weather: automated observation with no human augmentation;
there may or may not be significant weather present at this time

METAR text: KAUN 050915Z AUTO 00000KT 10SM BKN055 OVC070 10/09 A3002 RMK A01
Conditions at: KAUN (AUBURN MUNI , CA, US) observed 0915 UTC 05 December 2019
Temperature: 10.0°C (50°F)
Dewpoint: 9.0°C (48°F) [RH = 93%]
Pressure (altimeter): 30.02 inches Hg (1016.7 mb)
Winds: calm
Visibility: 10 or more miles (16+ km)
Ceiling: 5500 feet AGL
Clouds: broken clouds at 5500 feet AGL
overcast cloud deck at 7000 feet AGL
Weather: automated observation with no human augmentation;
there may or may not be significant weather present at this time

METAR text: KAUN 050855Z AUTO 00000KT 10SM FEW029 FEW055 OVC065 10/09 A3001 RMK A01
Conditions at: KAUN (AUBURN MUNI , CA, US) observed 0855 UTC 05 December 2019
Temperature: 10.0°C (50°F)
Dewpoint: 9.0°C (48°F) [RH = 93%]
Pressure (altimeter): 30.01 inches Hg (1016.3 mb)
Winds: calm
Visibility: 10 or more miles (16+ km)
Ceiling: 6500 feet AGL
Clouds: few clouds at 2900 feet AGL
few clouds at 5500 feet AGL
overcast cloud deck at 6500 feet AGL
Weather: automated observation with no human augmentation;
there may or may not be significant weather present at this time

METAR text: KAUN 050835Z AUTO 13004KT 10SM BKN028 BKN055 OVC065 11/09 A3001 RMK A01
Conditions at: KAUN (AUBURN MUNI , CA, US) observed 0835 UTC 05 December 2019
Temperature: 11.0°C (52°F)
Dewpoint: 9.0°C (48°F) [RH = 87%]
Pressure (altimeter): 30.01 inches Hg (1016.3 mb)
Winds: from the SE (130 degrees) at 5 MPH (4 knots; 2.1 m/s)
Visibility: 10 or more miles (16+ km)
Ceiling: 2800 feet AGL
Clouds: broken clouds at 2800 feet AGL
broken clouds at 5500 feet AGL
overcast cloud deck at 6500 feet AGL
Weather: automated observation with no human augmentation;
there may or may not be significant weather present at this time

METAR text: KAUN 050815Z AUTO 12006KT 10SM BKN021 OVC028 11/10 A3001 RMK A01
Conditions at: KAUN (AUBURN MUNI , CA, US) observed 0815 UTC 05 December 2019
Temperature: 11.0°C (52°F)
Dewpoint: 10.0°C (50°F) [RH = 94%]
Pressure (altimeter): 30.01 inches Hg (1016.3 mb)
Winds: from the ESE (120 degrees) at 7 MPH (6 knots; 3.1 m/s)
Visibility: 10 or more miles (16+ km)
Ceiling: 2100 feet AGL
Clouds: broken clouds at 2100 feet AGL
overcast cloud deck at 2800 feet AGL
Weather: automated observation with no human augmentation;
there may or may not be significant weather present at this time

METAR text: KAUN 050755Z AUTO 00000KT 10SM OVC020 11/10 A3001 RMK A01
Conditions at: KAUN (AUBURN MUNI , CA, US) observed 0755 UTC 05 December 2019
Temperature: 11.0°C (52°F)
Dewpoint: 10.0°C (50°F) [RH = 94%]
Pressure (altimeter): 30.01 inches Hg (1016.3 mb)
Winds: calm
Visibility: 10 or more miles (16+ km)
Ceiling: 2000 feet AGL
Clouds: overcast cloud deck at 2000 feet AGL
Weather: automated observation with no human augmentation;
there may or may not be significant weather present at this time

METAR text: KAUN 050735Z AUTO 00000KT 10SM FEW005 BKN022 OVC070 10/10 A3001 RMK A01
Conditions at: KAUN (AUBURN MUNI , CA, US) observed 0735 UTC 05 December 2019
Temperature: 10.0°C (50°F)
Dewpoint: 10.0°C (50°F) [RH = 100%]
Pressure (altimeter): 30.01 inches Hg (1016.3 mb)
Winds: calm
Visibility: 10 or more miles (16+ km)
Ceiling: 2200 feet AGL
Clouds: few clouds at 500 feet AGL
broken clouds at 2200 feet AGL
overcast cloud deck at 7000 feet AGL
Weather: automated observation with no human augmentation;
there may or may not be significant weather present at this time

METAR text: KAUN 050715Z AUTO 00000KT 10SM FEW005 FEW018 OVC070 10/10 A3000 RMK A01
Conditions at: KAUN (AUBURN MUNI , CA, US) observed 0715 UTC 05 December 2019
Temperature: 10.0°C (50°F)
Dewpoint: 10.0°C (50°F) [RH = 100%]
Pressure (altimeter): 30.00 inches Hg (1016.0 mb)
Winds: calm
Visibility: 10 or more miles (16+ km)
Ceiling: 7000 feet AGL
Clouds: few clouds at 500 feet AGL
few clouds at 1800 feet AGL
overcast cloud deck at 7000 feet AGL
Weather: automated observation with no human augmentation;
there may or may not be significant weather present at this time

METAR text: KAUN 050655Z AUTO 11005KT 9SM BKN005 BKN055 BKN070 10/10 A2999 RMK A01 P0003
Conditions at: KAUN (AUBURN MUNI , CA, US) observed 0655 UTC 05 December 2019
Temperature: 10.0°C (50°F)
Dewpoint: 10.0°C (50°F) [RH = 100%]
Pressure (altimeter): 29.99 inches Hg (1015.7 mb)
Winds: from the ESE (110 degrees) at 6 MPH (5 knots; 2.6 m/s)
Visibility: 9 miles (14 km)
Ceiling: 500 feet AGL
Clouds: broken clouds at 500 feet AGL
broken clouds at 5500 feet AGL
broken clouds at 7000 feet AGL
Weather: automated observation with no human augmentation;
there may or may not be significant weather present at this time

METAR text: KAUN 050635Z AUTO 11005KT 4SM BR BKN004 OVC007 11/10 A2999 RMK A01
Conditions at: KAUN (AUBURN MUNI , CA, US) observed 0635 UTC 05 December 2019
Temperature: 11.0°C (52°F)
Dewpoint: 10.0°C (50°F) [RH = 94%]
Pressure (altimeter): 29.99 inches Hg (1015.7 mb)
Winds: from the ESE (110 degrees) at 6 MPH (5 knots; 2.6 m/s)
Visibility: 4 miles ( 6 km)
Ceiling: 400 feet AGL
Clouds: broken clouds at 400 feet AGL
overcast cloud deck at 700 feet AGL
Weather: BR  (mist)

METAR text: KAUN 050615Z AUTO 00000KT 2 1/2SM BR BKN004 OVC008 11/10 A2999 RMK A01
Conditions at: KAUN (AUBURN MUNI , CA, US) observed 0615 UTC 05 December 2019
Temperature: 11.0°C (52°F)
Dewpoint: 10.0°C (50°F) [RH = 94%]
Pressure (altimeter): 29.99 inches Hg (1015.7 mb)
Winds: calm
Visibility: 2.50 miles (4.02 km)
Ceiling: 400 feet AGL
Clouds: broken clouds at 400 feet AGL
overcast cloud deck at 800 feet AGL
Weather: BR  (mist)

METAR text: KAUN 050555Z AUTO 00000KT 2SM BR BKN004 OVC010 10/10 A2999 RMK A01 P0010
Conditions at: KAUN (AUBURN MUNI , CA, US) observed 0555 UTC 05 December 2019
Temperature: 10.0°C (50°F)
Dewpoint: 10.0°C (50°F) [RH = 100%]
Pressure (altimeter): 29.99 inches Hg (1015.7 mb)
Winds: calm
Visibility: 2.00 miles (3.22 km)
Ceiling: 400 feet AGL
Clouds: broken clouds at 400 feet AGL
overcast cloud deck at 1000 feet AGL
Weather: BR  (mist)

METAR text: KAUN 050535Z AUTO 00000KT 1 1/2SM BR OVC004 10/10 A2998 RMK A01
Conditions at: KAUN (AUBURN MUNI , CA, US) observed 0535 UTC 05 December 2019
Temperature: 10.0°C (50°F)
Dewpoint: 10.0°C (50°F) [RH = 100%]
Pressure (altimeter): 29.98 inches Hg (1015.3 mb)
Winds: calm
Visibility: 1.50 miles (2.41 km)
Ceiling: 400 feet AGL
Clouds: overcast cloud deck at 400 feet AGL
Weather: BR  (mist)

METAR text: KAUN 050515Z AUTO 00000KT 3SM BR FEW003 OVC008 10/10 A2998 RMK A01
Conditions at: KAUN (AUBURN MUNI , CA, US) observed 0515 UTC 05 December 2019
Temperature: 10.0°C (50°F)
Dewpoint: 10.0°C (50°F) [RH = 100%]
Pressure (altimeter): 29.98 inches Hg (1015.3 mb)
Winds: calm
Visibility: 3 miles ( 5 km)
Ceiling: 800 feet AGL
Clouds: few clouds at 300 feet AGL
overcast cloud deck at 800 feet AGL
Weather: BR  (mist)

METAR text: KAUN 050455Z AUTO 00000KT 10SM OVC009 10/10 A2997 RMK A01 P0001
Conditions at: KAUN (AUBURN MUNI , CA, US) observed 0455 UTC 05 December 2019
Temperature: 10.0°C (50°F)
Dewpoint: 10.0°C (50°F) [RH = 100%]
Pressure (altimeter): 29.97 inches Hg (1015.0 mb)
Winds: calm
Visibility: 10 or more miles (16+ km)
Ceiling: 900 feet AGL
Clouds: overcast cloud deck at 900 feet AGL
Weather: automated observation with no human augmentation;
there may or may not be significant weather present at this time

METAR text: KAUN 050435Z AUTO 00000KT 10SM OVC012 10/10 A2996 RMK A01
Conditions at: KAUN (AUBURN MUNI , CA, US) observed 0435 UTC 05 December 2019
Temperature: 10.0°C (50°F)
Dewpoint: 10.0°C (50°F) [RH = 100%]
Pressure (altimeter): 29.96 inches Hg (1014.6 mb)
Winds: calm
Visibility: 10 or more miles (16+ km)
Ceiling: 1200 feet AGL
Clouds: overcast cloud deck at 1200 feet AGL
Weather: automated observation with no human augmentation;
there may or may not be significant weather present at this time

METAR text: KAUN 050415Z AUTO 00000KT 6SM BR FEW007 OVC013 10/10 A2994 RMK A01
Conditions at: KAUN (AUBURN MUNI , CA, US) observed 0415 UTC 05 December 2019
Temperature: 10.0°C (50°F)
Dewpoint: 10.0°C (50°F) [RH = 100%]
Pressure (altimeter): 29.94 inches Hg (1014.0 mb)
Winds: calm
Visibility: 6 miles (10 km)
Ceiling: 1300 feet AGL
Clouds: few clouds at 700 feet AGL
overcast cloud deck at 1300 feet AGL
Weather: BR  (mist)

METAR text: KAUN 050355Z AUTO 00000KT 3SM BR SCT003 BKN007 OVC011 10/10 A2994 RMK A01 P0002
Conditions at: KAUN (AUBURN MUNI , CA, US) observed 0355 UTC 05 December 2019
Temperature: 10.0°C (50°F)
Dewpoint: 10.0°C (50°F) [RH = 100%]
Pressure (altimeter): 29.94 inches Hg (1014.0 mb)
Winds: calm
Visibility: 3 miles ( 5 km)
Ceiling: 700 feet AGL
Clouds: scattered clouds at 300 feet AGL
broken clouds at 700 feet AGL
overcast cloud deck at 1100 feet AGL
Weather: BR  (mist)

METAR text: KAUN 050335Z AUTO 00000KT 1 1/4SM BR OVC004 10/10 A2994 RMK A01
Conditions at: KAUN (AUBURN MUNI , CA, US) observed 0335 UTC 05 December 2019
Temperature: 10.0°C (50°F)
Dewpoint: 10.0°C (50°F) [RH = 100%]
Pressure (altimeter): 29.94 inches Hg (1014.0 mb)
Winds: calm
Visibility: 1.25 miles (2.01 km)
Ceiling: 400 feet AGL
Clouds: overcast cloud deck at 400 feet AGL
Weather: BR  (mist)

METAR text: KAUN 050315Z AUTO 00000KT 1 3/4SM BR OVC005 10/10 A2993 RMK A01
Conditions at: KAUN (AUBURN MUNI , CA, US) observed 0315 UTC 05 December 2019
Temperature: 10.0°C (50°F)
Dewpoint: 10.0°C (50°F) [RH = 100%]
Pressure (altimeter): 29.93 inches Hg (1013.6 mb)
Winds: calm
Visibility: 1.75 miles (2.82 km)
Ceiling: 500 feet AGL
Clouds: overcast cloud deck at 500 feet AGL
Weather: BR  (mist)

METAR text: KAUN 050255Z AUTO 00000KT 1 1/2SM BR OVC005 10/10 A2992 RMK A01 P0003
Conditions at: KAUN (AUBURN MUNI , CA, US) observed 0255 UTC 05 December 2019
Temperature: 10.0°C (50°F)
Dewpoint: 10.0°C (50°F) [RH = 100%]
Pressure (altimeter): 29.92 inches Hg (1013.3 mb)
Winds: calm
Visibility: 1.50 miles (2.41 km)
Ceiling: 500 feet AGL
Clouds: overcast cloud deck at 500 feet AGL
Weather: BR  (mist)

METAR text: KAUN 050235Z AUTO 00000KT 1 3/4SM BR OVC004 10/10 A2992 RMK A01
Conditions at: KAUN (AUBURN MUNI , CA, US) observed 0235 UTC 05 December 2019
Temperature: 10.0°C (50°F)
Dewpoint: 10.0°C (50°F) [RH = 100%]
Pressure (altimeter): 29.92 inches Hg (1013.3 mb)
Winds: calm
Visibility: 1.75 miles (2.82 km)
Ceiling: 400 feet AGL
Clouds: overcast cloud deck at 400 feet AGL
Weather: BR  (mist)

METAR text: KAUN 050215Z AUTO 00000KT 2 1/2SM BR BKN003 OVC008 10/10 A2990 RMK A01
Conditions at: KAUN (AUBURN MUNI , CA, US) observed 0215 UTC 05 December 2019
Temperature: 10.0°C (50°F)
Dewpoint: 10.0°C (50°F) [RH = 100%]
Pressure (altimeter): 29.90 inches Hg (1012.6 mb)
Winds: calm
Visibility: 2.50 miles (4.02 km)
Ceiling: 300 feet AGL
Clouds: broken clouds at 300 feet AGL
overcast cloud deck at 800 feet AGL
Weather: BR  (mist)

METAR text: KAUN 050155Z AUTO 00000KT 1 1/4SM BR OVC003 10/10 A2990 RMK A01 P0003
Conditions at: KAUN (AUBURN MUNI , CA, US) observed 0155 UTC 05 December 2019
Temperature: 10.0°C (50°F)
Dewpoint: 10.0°C (50°F) [RH = 100%]
Pressure (altimeter): 29.90 inches Hg (1012.6 mb)
Winds: calm
Visibility: 1.25 miles (2.01 km)
Ceiling: 300 feet AGL
Clouds: overcast cloud deck at 300 feet AGL
Weather: BR  (mist)

METAR text: KAUN 050135Z AUTO 00000KT 1 1/4SM BR OVC004 10/10 A2989 RMK A01
Conditions at: KAUN (AUBURN MUNI , CA, US) observed 0135 UTC 05 December 2019
Temperature: 10.0°C (50°F)
Dewpoint: 10.0°C (50°F) [RH = 100%]
Pressure (altimeter): 29.89 inches Hg (1012.3 mb)
Winds: calm
Visibility: 1.25 miles (2.01 km)
Ceiling: 400 feet AGL
Clouds: overcast cloud deck at 400 feet AGL
Weather: BR  (mist)

METAR text: KAUN 050115Z AUTO 00000KT 2SM BR BKN004 BKN008 OVC026 10/10 A2988 RMK A01
Conditions at: KAUN (AUBURN MUNI , CA, US) observed 0115 UTC 05 December 2019
Temperature: 10.0°C (50°F)
Dewpoint: 10.0°C (50°F) [RH = 100%]
Pressure (altimeter): 29.88 inches Hg (1011.9 mb)
Winds: calm
Visibility: 2.00 miles (3.22 km)
Ceiling: 400 feet AGL
Clouds: broken clouds at 400 feet AGL
broken clouds at 800 feet AGL
overcast cloud deck at 2600 feet AGL
Weather: BR  (mist)

METAR text: KAUN 050055Z AUTO 00000KT 1 3/4SM BR FEW004 BKN021 OVC026 10/10 A2988 RMK A01 P0003
Conditions at: KAUN (AUBURN MUNI , CA, US) observed 0055 UTC 05 December 2019
Temperature: 10.0°C (50°F)
Dewpoint: 10.0°C (50°F) [RH = 100%]
Pressure (altimeter): 29.88 inches Hg (1011.9 mb)
Winds: calm
Visibility: 1.75 miles (2.82 km)
Ceiling: 2100 feet AGL
Clouds: few clouds at 400 feet AGL
broken clouds at 2100 feet AGL
overcast cloud deck at 2600 feet AGL
Weather: BR  (mist)

METAR text: KAUN 050035Z AUTO 00000KT 1SM BR SCT003 OVC021 11/10 A2987 RMK A01
Conditions at: KAUN (AUBURN MUNI , CA, US) observed 0035 UTC 05 December 2019
Temperature: 11.0°C (52°F)
Dewpoint: 10.0°C (50°F) [RH = 94%]
Pressure (altimeter): 29.87 inches Hg (1011.6 mb)
Winds: calm
Visibility: 1.00 miles (1.61 km)
Ceiling: 2100 feet AGL
Clouds: scattered clouds at 300 feet AGL
overcast cloud deck at 2100 feet AGL
Weather: BR  (mist)

METAR text: KAUN 050015Z AUTO 00000KT 1 3/4SM BR OVC003 11/10 A2986 RMK A01
Conditions at: KAUN (AUBURN MUNI , CA, US) observed 0015 UTC 05 December 2019
Temperature: 11.0°C (52°F)
Dewpoint: 10.0°C (50°F) [RH = 94%]
Pressure (altimeter): 29.86 inches Hg (1011.3 mb)
Winds: calm
Visibility: 1.75 miles (2.82 km)
Ceiling: 300 feet AGL
Clouds: overcast cloud deck at 300 feet AGL
Weather: BR  (mist)

METAR text: KAUN 042355Z AUTO 00000KT 1SM BR OVC002 10/10 A2986 RMK A01 P0001
Conditions at: KAUN (AUBURN MUNI , CA, US) observed 2355 UTC 04 December 2019
Temperature: 10.0°C (50°F)
Dewpoint: 10.0°C (50°F) [RH = 100%]
Pressure (altimeter): 29.86 inches Hg (1011.3 mb)
Winds: calm
Visibility: 1.00 miles (1.61 km)
Ceiling: 200 feet AGL
Clouds: overcast cloud deck at 200 feet AGL
Weather: BR  (mist)

METAR text: KAUN 042335Z AUTO 00000KT 1 1/4SM BR OVC003 11/10 A2986 RMK A01
Conditions at: KAUN (AUBURN MUNI , CA, US) observed 2335 UTC 04 December 2019
Temperature: 11.0°C (52°F)
Dewpoint: 10.0°C (50°F) [RH = 94%]
Pressure (altimeter): 29.86 inches Hg (1011.3 mb)
Winds: calm
Visibility: 1.25 miles (2.01 km)
Ceiling: 300 feet AGL
Clouds: overcast cloud deck at 300 feet AGL
Weather: BR  (mist)

METAR text: KAUN 042315Z AUTO 00000KT 1 1/2SM BR BKN004 OVC008 11/10 A2986 RMK A01
Conditions at: KAUN (AUBURN MUNI , CA, US) observed 2315 UTC 04 December 2019
Temperature: 11.0°C (52°F)
Dewpoint: 10.0°C (50°F) [RH = 94%]
Pressure (altimeter): 29.86 inches Hg (1011.3 mb)
Winds: calm
Visibility: 1.50 miles (2.41 km)
Ceiling: 400 feet AGL
Clouds: broken clouds at 400 feet AGL
overcast cloud deck at 800 feet AGL
Weather: BR  (mist)

METAR text: KAUN 042255Z AUTO 00000KT 1SM BR BKN004 11/10 A2985 RMK A01 P0001
Conditions at: KAUN (AUBURN MUNI , CA, US) observed 2255 UTC 04 December 2019
Temperature: 11.0°C (52°F)
Dewpoint: 10.0°C (50°F) [RH = 94%]
Pressure (altimeter): 29.85 inches Hg (1010.9 mb)
Winds: calm
Visibility: 1.00 miles (1.61 km)
Ceiling: 400 feet AGL
Clouds: broken clouds at 400 feet AGL
Weather: BR  (mist)

METAR text: KAUN 042235Z AUTO 00000KT 3/4SM BR OVC006 11/10 A2985 RMK A01
Conditions at: KAUN (AUBURN MUNI , CA, US) observed 2235 UTC 04 December 2019
Temperature: 11.0°C (52°F)
Dewpoint: 10.0°C (50°F) [RH = 94%]
Pressure (altimeter): 29.85 inches Hg (1010.9 mb)
Winds: calm
Visibility: 0.75 miles (1.21 km)
Ceiling: 600 feet AGL
Clouds: overcast cloud deck at 600 feet AGL
Weather: BR  (mist)

METAR text: KAUN 042215Z AUTO 00000KT 1 3/4SM BR OVC005 11/10 A2984 RMK A01
Conditions at: KAUN (AUBURN MUNI , CA, US) observed 2215 UTC 04 December 2019
Temperature: 11.0°C (52°F)
Dewpoint: 10.0°C (50°F) [RH = 94%]
Pressure (altimeter): 29.84 inches Hg (1010.6 mb)
Winds: calm
Visibility: 1.75 miles (2.82 km)
Ceiling: 500 feet AGL
Clouds: overcast cloud deck at 500 feet AGL
Weather: BR  (mist)

METAR text: KAUN 042155Z AUTO 00000KT 9SM OVC006 11/10 A2984 RMK A01
Conditions at: KAUN (AUBURN MUNI , CA, US) observed 2155 UTC 04 December 2019
Temperature: 11.0°C (52°F)
Dewpoint: 10.0°C (50°F) [RH = 94%]
Pressure (altimeter): 29.84 inches Hg (1010.6 mb)
Winds: calm
Visibility: 9 miles (14 km)
Ceiling: 600 feet AGL
Clouds: overcast cloud deck at 600 feet AGL
Weather: automated observation with no human augmentation;
there may or may not be significant weather present at this time

METAR text: KAUN 042135Z AUTO 00000KT 8SM OVC006 11/10 A2984 RMK A01
Conditions at: KAUN (AUBURN MUNI , CA, US) observed 2135 UTC 04 December 2019
Temperature: 11.0°C (52°F)
Dewpoint: 10.0°C (50°F) [RH = 94%]
Pressure (altimeter): 29.84 inches Hg (1010.6 mb)
Winds: calm
Visibility: 8 miles (13 km)
Ceiling: 600 feet AGL
Clouds: overcast cloud deck at 600 feet AGL
Weather: automated observation with no human augmentation;
there may or may not be significant weather present at this time

METAR text: KAUN 042115Z AUTO 00000KT 4SM BR BKN005 OVC008 10/10 A2985 RMK A01
Conditions at: KAUN (AUBURN MUNI , CA, US) observed 2115 UTC 04 December 2019
Temperature: 10.0°C (50°F)
Dewpoint: 10.0°C (50°F) [RH = 100%]
Pressure (altimeter): 29.85 inches Hg (1010.9 mb)
Winds: calm
Visibility: 4 miles ( 6 km)
Ceiling: 500 feet AGL
Clouds: broken clouds at 500 feet AGL
overcast cloud deck at 800 feet AGL
Weather: BR  (mist)

METAR text: KAUN 042055Z AUTO 00000KT 6SM BR BKN008 OVC012 10/10 A2986 RMK A01
Conditions at: KAUN (AUBURN MUNI , CA, US) observed 2055 UTC 04 December 2019
Temperature: 10.0°C (50°F)
Dewpoint: 10.0°C (50°F) [RH = 100%]
Pressure (altimeter): 29.86 inches Hg (1011.3 mb)
Winds: calm
Visibility: 6 miles (10 km)
Ceiling: 800 feet AGL
Clouds: broken clouds at 800 feet AGL
overcast cloud deck at 1200 feet AGL
Weather: BR  (mist)

METAR text: KAUN 042035Z AUTO 00000KT 9SM OVC006 10/10 A2986 RMK A01
Conditions at: KAUN (AUBURN MUNI , CA, US) observed 2035 UTC 04 December 2019
Temperature: 10.0°C (50°F)
Dewpoint: 10.0°C (50°F) [RH = 100%]
Pressure (altimeter): 29.86 inches Hg (1011.3 mb)
Winds: calm
Visibility: 9 miles (14 km)
Ceiling: 600 feet AGL
Clouds: overcast cloud deck at 600 feet AGL
Weather: automated observation with no human augmentation;
there may or may not be significant weather present at this time

METAR text: KAUN 042015Z AUTO 21005KT 8SM BKN005 BKN012 OVC043 10/10 A2987 RMK A01
Conditions at: KAUN (AUBURN MUNI , CA, US) observed 2015 UTC 04 December 2019
Temperature: 10.0°C (50°F)
Dewpoint: 10.0°C (50°F) [RH = 100%]
Pressure (altimeter): 29.87 inches Hg (1011.6 mb)
Winds: from the SSW (210 degrees) at 6 MPH (5 knots; 2.6 m/s)
Visibility: 8 miles (13 km)
Ceiling: 500 feet AGL
Clouds: broken clouds at 500 feet AGL
broken clouds at 1200 feet AGL
overcast cloud deck at 4300 feet AGL
Weather: automated observation with no human augmentation;
there may or may not be significant weather present at this time

METAR text: KAUN 041955Z AUTO 22005KT 10SM BKN044 BKN050 11/10 A2987 RMK A01
Conditions at: KAUN (AUBURN MUNI , CA, US) observed 1955 UTC 04 December 2019
Temperature: 11.0°C (52°F)
Dewpoint: 10.0°C (50°F) [RH = 94%]
Pressure (altimeter): 29.87 inches Hg (1011.6 mb)
Winds: from the SW (220 degrees) at 6 MPH (5 knots; 2.6 m/s)
Visibility: 10 or more miles (16+ km)
Ceiling: 4400 feet AGL
Clouds: broken clouds at 4400 feet AGL
broken clouds at 5000 feet AGL
Weather: automated observation with no human augmentation;
there may or may not be significant weather present at this time

METAR text: KAUN 041935Z AUTO 00000KT 8SM BKN055 BKN070 11/10 A2987 RMK A01
Conditions at: KAUN (AUBURN MUNI , CA, US) observed 1935 UTC 04 December 2019
Temperature: 11.0°C (52°F)
Dewpoint: 10.0°C (50°F) [RH = 94%]
Pressure (altimeter): 29.87 inches Hg (1011.6 mb)
Winds: calm
Visibility: 8 miles (13 km)
Ceiling: 5500 feet AGL
Clouds: broken clouds at 5500 feet AGL
broken clouds at 7000 feet AGL
Weather: automated observation with no human augmentation;
there may or may not be significant weather present at this time

METAR text: KAUN 041915Z AUTO 00000KT 10SM BKN065 BKN085 11/10 A2987 RMK A01
Conditions at: KAUN (AUBURN MUNI , CA, US) observed 1915 UTC 04 December 2019
Temperature: 11.0°C (52°F)
Dewpoint: 10.0°C (50°F) [RH = 94%]
Pressure (altimeter): 29.87 inches Hg (1011.6 mb)
Winds: calm
Visibility: 10 or more miles (16+ km)
Ceiling: 6500 feet AGL
Clouds: broken clouds at 6500 feet AGL
broken clouds at 8500 feet AGL
Weather: automated observation with no human augmentation;
there may or may not be significant weather present at this time

METAR text: KAUN 041855Z AUTO 00000KT 10SM FEW070 SCT085 11/10 A2988 RMK A01 P0001
Conditions at: KAUN (AUBURN MUNI , CA, US) observed 1855 UTC 04 December 2019
Temperature: 11.0°C (52°F)
Dewpoint: 10.0°C (50°F) [RH = 94%]
Pressure (altimeter): 29.88 inches Hg (1011.9 mb)
Winds: calm
Visibility: 10 or more miles (16+ km)
Ceiling: at least 12,000 feet AGL
Clouds: few clouds at 7000 feet AGL
scattered clouds at 8500 feet AGL
Weather: automated observation with no human augmentation;
there may or may not be significant weather present at this time

METAR text: KAUN 041835Z AUTO 07004KT 10SM CLR 10/09 A2989 RMK A01
Conditions at: KAUN (AUBURN MUNI , CA, US) observed 1835 UTC 04 December 2019
Temperature: 10.0°C (50°F)
Dewpoint: 9.0°C (48°F) [RH = 93%]
Pressure (altimeter): 29.89 inches Hg (1012.3 mb)
Winds: from the ENE (70 degrees) at 5 MPH (4 knots; 2.1 m/s)
Visibility: 10 or more miles (16+ km)
Ceiling: at least 12,000 feet AGL
Clouds: sky clear below 12,000 feet AGL
Weather: automated observation with no human augmentation;
there may or may not be significant weather present at this time

METAR text: KAUN 041815Z AUTO 07005KT 9SM CLR 10/09 A2990 RMK A01
Conditions at: KAUN (AUBURN MUNI , CA, US) observed 1815 UTC 04 December 2019
Temperature: 10.0°C (50°F)
Dewpoint: 9.0°C (48°F) [RH = 93%]
Pressure (altimeter): 29.90 inches Hg (1012.6 mb)
Winds: from the ENE (70 degrees) at 6 MPH (5 knots; 2.6 m/s)
Visibility: 9 miles (14 km)
Ceiling: at least 12,000 feet AGL
Clouds: sky clear below 12,000 feet AGL
Weather: automated observation with no human augmentation;
there may or may not be significant weather present at this time

METAR text: KAUN 041755Z AUTO 09008KT 6SM BR FEW045 SCT050 10/09 A2991 RMK A01 P0002
Conditions at: KAUN (AUBURN MUNI , CA, US) observed 1755 UTC 04 December 2019
Temperature: 10.0°C (50°F)
Dewpoint: 9.0°C (48°F) [RH = 93%]
Pressure (altimeter): 29.91 inches Hg (1013.0 mb)
Winds: from the E (90 degrees) at 9 MPH (8 knots; 4.1 m/s)
Visibility: 6 miles (10 km)
Ceiling: at least 12,000 feet AGL
Clouds: few clouds at 4500 feet AGL
scattered clouds at 5000 feet AGL
Weather: BR  (mist)

METAR text: KAUN 041735Z AUTO 09007KT 6SM BR SCT050 10/09 A2991 RMK A01
Conditions at: KAUN (AUBURN MUNI , CA, US) observed 1735 UTC 04 December 2019
Temperature: 10.0°C (50°F)
Dewpoint: 9.0°C (48°F) [RH = 93%]
Pressure (altimeter): 29.91 inches Hg (1013.0 mb)
Winds: from the E (90 degrees) at 8 MPH (7 knots; 3.6 m/s)
Visibility: 6 miles (10 km)
Ceiling: at least 12,000 feet AGL
Clouds: scattered clouds at 5000 feet AGL
Weather: BR  (mist)

METAR text: KAUN 041715Z AUTO 09006KT 7SM SCT050 10/09 A2991 RMK A01
Conditions at: KAUN (AUBURN MUNI , CA, US) observed 1715 UTC 04 December 2019
Temperature: 10.0°C (50°F)
Dewpoint: 9.0°C (48°F) [RH = 93%]
Pressure (altimeter): 29.91 inches Hg (1013.0 mb)
Winds: from the E (90 degrees) at 7 MPH (6 knots; 3.1 m/s)
Visibility: 7 miles (11 km)
Ceiling: at least 12,000 feet AGL
Clouds: scattered clouds at 5000 feet AGL
Weather: automated observation with no human augmentation;
there may or may not be significant weather present at this time

METAR text: KAUN 041650Z AUTO 10005KT 5SM BR BKN050 BKN060 10/09 A2991 RMK A01
Conditions at: KAUN (AUBURN MUNI , CA, US) observed 1650 UTC 04 December 2019
Temperature: 10.0°C (50°F)
Dewpoint: 9.0°C (48°F) [RH = 93%]
Pressure (altimeter): 29.91 inches Hg (1013.0 mb)
Winds: from the E (100 degrees) at 6 MPH (5 knots; 2.6 m/s)
Visibility: 5 miles ( 8 km)
Ceiling: 5000 feet AGL
Clouds: broken clouds at 5000 feet AGL
broken clouds at 6000 feet AGL
Weather: BR  (mist)

METAR text: KAUN 041635Z AUTO 00000KT 6SM BR FEW039 FEW045 BKN060 10/09 A2990 RMK A01
Conditions at: KAUN (AUBURN MUNI , CA, US) observed 1635 UTC 04 December 2019
Temperature: 10.0°C (50°F)
Dewpoint: 9.0°C (48°F) [RH = 93%]
Pressure (altimeter): 29.90 inches Hg (1012.6 mb)
Winds: calm
Visibility: 6 miles (10 km)
Ceiling: 6000 feet AGL
Clouds: few clouds at 3900 feet AGL
few clouds at 4500 feet AGL
broken clouds at 6000 feet AGL
Weather: BR  (mist)

METAR text: KAUN 041615Z AUTO 09003KT 6SM BR SCT040 SCT047 BKN060 09/09 A2990 RMK A01
Conditions at: KAUN (AUBURN MUNI , CA, US) observed 1615 UTC 04 December 2019
Temperature: 9.0°C (48°F)
Dewpoint: 9.0°C (48°F) [RH = 100%]
Pressure (altimeter): 29.90 inches Hg (1012.6 mb)
Winds: from the E (90 degrees) at 3 MPH (3 knots; 1.5 m/s)
Visibility: 6 miles (10 km)
Ceiling: 6000 feet AGL
Clouds: scattered clouds at 4000 feet AGL
scattered clouds at 4700 feet AGL
broken clouds at 6000 feet AGL
Weather: BR  (mist)

METAR text: KAUN 041555Z AUTO 00000KT 5SM BR FEW031 BKN039 BKN047 09/09 A2989 RMK A01 P0005
Conditions at: KAUN (AUBURN MUNI , CA, US) observed 1555 UTC 04 December 2019
Temperature: 9.0°C (48°F)
Dewpoint: 9.0°C (48°F) [RH = 100%]
Pressure (altimeter): 29.89 inches Hg (1012.3 mb)
Winds: calm
Visibility: 5 miles ( 8 km)
Ceiling: 3900 feet AGL
Clouds: few clouds at 3100 feet AGL
broken clouds at 3900 feet AGL
broken clouds at 4700 feet AGL
Weather: BR  (mist)

METAR text: KAUN 041535Z AUTO 00000KT 6SM BR OVC040 09/09 A2989 RMK A01
Conditions at: KAUN (AUBURN MUNI , CA, US) observed 1535 UTC 04 December 2019
Temperature: 9.0°C (48°F)
Dewpoint: 9.0°C (48°F) [RH = 100%]
Pressure (altimeter): 29.89 inches Hg (1012.3 mb)
Winds: calm
Visibility: 6 miles (10 km)
Ceiling: 4000 feet AGL
Clouds: overcast cloud deck at 4000 feet AGL
Weather: BR  (mist)

METAR text: KAUN 041515Z AUTO 00000KT 5SM BR BKN040 BKN048 OVC055 09/09 A2989 RMK A01
Conditions at: KAUN (AUBURN MUNI , CA, US) observed 1515 UTC 04 December 2019
Temperature: 9.0°C (48°F)
Dewpoint: 9.0°C (48°F) [RH = 100%]
Pressure (altimeter): 29.89 inches Hg (1012.3 mb)
Winds: calm
Visibility: 5 miles ( 8 km)
Ceiling: 4000 feet AGL
Clouds: broken clouds at 4000 feet AGL
broken clouds at 4800 feet AGL
overcast cloud deck at 5500 feet AGL
Weather: BR  (mist)

METAR text: KAUN 041455Z AUTO 00000KT 7SM FEW044 OVC055 09/09 A2989 RMK A01 P0002
Conditions at: KAUN (AUBURN MUNI , CA, US) observed 1455 UTC 04 December 2019
Temperature: 9.0°C (48°F)
Dewpoint: 9.0°C (48°F) [RH = 100%]
Pressure (altimeter): 29.89 inches Hg (1012.3 mb)
Winds: calm
Visibility: 7 miles (11 km)
Ceiling: 5500 feet AGL
Clouds: few clouds at 4400 feet AGL
overcast cloud deck at 5500 feet AGL
Weather: automated observation with no human augmentation;
there may or may not be significant weather present at this time

METAR text: KAUN 041435Z AUTO 00000KT 7SM OVC055 10/09 A2989 RMK A01
Conditions at: KAUN (AUBURN MUNI , CA, US) observed 1435 UTC 04 December 2019
Temperature: 10.0°C (50°F)
Dewpoint: 9.0°C (48°F) [RH = 93%]
Pressure (altimeter): 29.89 inches Hg (1012.3 mb)
Winds: calm
Visibility: 7 miles (11 km)
Ceiling: 5500 feet AGL
Clouds: overcast cloud deck at 5500 feet AGL
Weather: automated observation with no human augmentation;
there may or may not be significant weather present at this time

METAR text: KAUN 041415Z AUTO 00000KT 8SM OVC055 10/09 A2989 RMK A01
Conditions at: KAUN (AUBURN MUNI , CA, US) observed 1415 UTC 04 December 2019
Temperature: 10.0°C (50°F)
Dewpoint: 9.0°C (48°F) [RH = 93%]
Pressure (altimeter): 29.89 inches Hg (1012.3 mb)
Winds: calm
Visibility: 8 miles (13 km)
Ceiling: 5500 feet AGL
Clouds: overcast cloud deck at 5500 feet AGL
Weather: automated observation with no human augmentation;
there may or may not be significant weather present at this time

METAR text: KAUN 041355Z AUTO 00000KT 10SM FEW041 OVC060 10/08 A2989 RMK A01 P0001
Conditions at: KAUN (AUBURN MUNI , CA, US) observed 1355 UTC 04 December 2019
Temperature: 10.0°C (50°F)
Dewpoint: 8.0°C (46°F) [RH = 87%]
Pressure (altimeter): 29.89 inches Hg (1012.3 mb)
Winds: calm
Visibility: 10 or more miles (16+ km)
Ceiling: 6000 feet AGL
Clouds: few clouds at 4100 feet AGL
overcast cloud deck at 6000 feet AGL
Weather: automated observation with no human augmentation;
there may or may not be significant weather present at this time

METAR text: KAUN 041335Z AUTO 00000KT 9SM SCT041 OVC060 10/09 A2990 RMK A01
Conditions at: KAUN (AUBURN MUNI , CA, US) observed 1335 UTC 04 December 2019
Temperature: 10.0°C (50°F)
Dewpoint: 9.0°C (48°F) [RH = 93%]
Pressure (altimeter): 29.90 inches Hg (1012.6 mb)
Winds: calm
Visibility: 9 miles (14 km)
Ceiling: 6000 feet AGL
Clouds: scattered clouds at 4100 feet AGL
overcast cloud deck at 6000 feet AGL
Weather: automated observation with no human augmentation;
there may or may not be significant weather present at this time